Federal Way, Washington
Current Conditions -  °F | °C
As of 8:53 PM on Thursday 30 Oct 2014 (Local Time) from KSEA Reporting Station
Light Rain Light Rain  
Wind Chill: 55°   Ceiling: 2200
Heat Index: 55°   Visibility: 7mi
Dew Point: 53°   Wind: 7mph
Humidity: 93%   Direction: 200°SSW
Pressure: 29.79"   Gusts: NA
Location:  47.3°N, 122.32°W
Report Text: KSEA 310353Z 20006KT 7SM -RA SCT007 BKN022 OVC045 13/12 A2979 RMK AO2 RAB0255 SLP093 P0008 T01280117
Loading
Personal Weather Stations






























Interactive Weather Map New forecast layout! Learn more

10-Day Weather Forecast

Advertisements
Track Severe Weather on mobile